createdAt,value
2023-04-11T00:00:57.130Z,1.20
2023-04-11T00:03:25.034Z,1.70
2023-04-11T00:05:52.674Z,1.50
2023-04-11T00:08:20.045Z,1.23
2023-04-11T00:10:47.436Z,1.30
2023-04-11T00:13:14.820Z,1.20
2023-04-11T00:15:42.367Z,1.20
2023-04-11T00:18:11.370Z,1.10
2023-04-11T00:20:38.684Z,1.00
2023-04-11T00:23:06.049Z,1.10
2023-04-11T00:25:33.454Z,0.97
2023-04-11T00:28:00.840Z,1.00
2023-04-11T00:30:28.216Z,1.07
2023-04-11T00:32:55.628Z,1.50
2023-04-11T00:35:22.981Z,1.10
2023-04-11T00:37:51.989Z,1.40
2023-04-11T00:40:20.661Z,1.07
2023-04-11T00:42:48.609Z,1.40
2023-04-11T00:45:16.081Z,1.20
2023-04-11T00:47:43.567Z,1.27
2023-04-11T00:50:12.704Z,1.20
2023-04-11T00:52:40.925Z,1.10
2023-04-11T00:55:08.470Z,1.40
2023-04-11T00:57:35.909Z,1.10
2023-04-11T01:00:03.969Z,1.20
2023-04-11T01:02:31.996Z,1.13
2023-04-11T01:05:00.503Z,1.10
2023-04-11T01:07:28.134Z,1.30
2023-04-11T01:09:55.534Z,1.10
2023-04-11T01:12:23.173Z,1.20
2023-04-11T01:14:50.562Z,1.60
2023-04-11T01:17:17.930Z,1.30
2023-04-11T01:19:45.261Z,1.20
2023-04-11T01:22:14.575Z,1.40
2023-04-11T01:24:41.968Z,1.30
2023-04-11T01:27:09.419Z,1.00
2023-04-11T01:29:37.168Z,1.03
2023-04-11T01:32:04.602Z,1.93
2023-04-11T01:34:32.748Z,1.20
2023-04-11T01:37:00.458Z,1.10
2023-04-11T01:39:27.848Z,1.20
2023-04-11T01:41:56.974Z,1.10
2023-04-11T01:44:25.388Z,1.00
2023-04-11T01:46:52.784Z,1.20
2023-04-11T01:49:21.330Z,1.30
2023-04-11T01:51:48.642Z,1.10
2023-04-11T01:54:16.028Z,1.60
2023-04-11T01:56:43.504Z,1.20
2023-04-11T01:59:10.900Z,1.20
2023-04-11T02:01:38.407Z,1.27
2023-04-11T02:04:05.915Z,1.20
2023-04-11T02:06:33.426Z,1.20
2023-04-11T02:09:01.112Z,1.40
2023-04-11T02:11:28.551Z,1.17
2023-04-11T02:13:55.952Z,1.50
2023-04-11T02:16:25.009Z,1.30
2023-04-11T02:18:53.957Z,1.17
2023-04-11T02:21:21.475Z,1.17
2023-04-11T02:23:48.842Z,1.07
2023-04-11T02:26:16.253Z,0.90
2023-04-11T02:28:43.626Z,1.10
2023-04-11T02:31:11.237Z,1.17
2023-04-11T02:33:38.759Z,1.00
2023-04-11T02:36:06.239Z,1.00
2023-04-11T02:38:33.673Z,1.30
2023-04-11T02:41:01.088Z,1.20
2023-04-11T02:43:28.438Z,1.00
2023-04-11T02:46:02.334Z,1.30
2023-04-11T02:48:24.831Z,0.97
2023-04-11T02:50:52.147Z,1.20
2023-04-11T02:53:19.521Z,0.90
2023-04-11T02:55:46.926Z,1.17
2023-04-11T02:58:15.919Z,1.10
2023-04-11T03:00:43.304Z,1.07
2023-04-11T03:03:11.812Z,1.10
2023-04-11T03:05:39.315Z,1.13
2023-04-11T03:08:08.310Z,1.00
2023-04-11T03:10:36.088Z,1.50
2023-04-11T03:13:03.453Z,1.17
2023-04-11T03:15:32.333Z,1.20
2023-04-11T03:17:59.759Z,1.23
2023-04-11T03:20:27.129Z,1.23
2023-04-11T03:22:54.510Z,1.30
2023-04-11T03:25:22.362Z,1.20
2023-04-11T03:27:49.724Z,1.40
2023-04-11T03:30:17.127Z,1.20
2023-04-11T03:32:44.530Z,1.30
2023-04-11T03:35:11.880Z,1.20
2023-04-11T03:37:39.255Z,1.20
2023-04-11T03:40:08.441Z,1.10
2023-04-11T03:42:36.434Z,1.43
2023-04-11T03:45:04.031Z,1.53
2023-04-11T03:47:31.464Z,1.33
2023-04-11T03:50:00.001Z,1.50
2023-04-11T03:52:27.369Z,1.37
2023-04-11T03:54:54.775Z,1.13
2023-04-11T03:57:22.234Z,1.33
2023-04-11T03:59:49.585Z,1.30
2023-04-11T04:02:17.028Z,1.57
2023-04-11T04:04:48.398Z,1.80
2023-04-11T04:07:17.521Z,1.57
2023-04-11T04:09:44.958Z,1.53
2023-04-11T04:12:12.333Z,1.47
2023-04-11T04:14:39.649Z,1.37
2023-04-11T04:17:08.098Z,1.30
2023-04-11T04:19:35.415Z,1.73
2023-04-11T04:22:03.578Z,1.60
2023-04-11T04:24:31.750Z,1.20
2023-04-11T04:27:00.723Z,1.40
2023-04-11T04:29:29.723Z,1.73
2023-04-11T04:31:57.738Z,1.50
2023-04-11T04:34:26.775Z,1.77
2023-04-11T04:36:55.811Z,1.67
2023-04-11T04:39:24.857Z,1.30
2023-04-11T04:41:58.473Z,1.73
2023-04-11T04:44:26.247Z,1.60
2023-04-11T04:46:57.334Z,1.73
2023-04-11T04:49:24.729Z,1.37
2023-04-11T04:51:52.117Z,1.70
2023-04-11T04:54:19.494Z,1.90
2023-04-11T04:56:48.031Z,1.80
2023-04-11T04:59:16.095Z,1.40
2023-04-11T05:01:44.361Z,1.60
2023-04-11T05:04:12.024Z,1.40
2023-04-11T05:06:39.634Z,1.93
2023-04-11T05:09:07.027Z,1.60
2023-04-11T05:11:34.408Z,1.50
2023-04-11T05:14:01.830Z,1.77
2023-04-11T05:16:29.211Z,1.60
2023-04-11T05:18:56.568Z,1.80
2023-04-11T05:21:23.963Z,1.50
2023-04-11T05:23:51.326Z,1.60
2023-04-11T05:26:18.786Z,1.70
2023-04-11T05:28:46.703Z,1.93
2023-04-11T05:31:14.066Z,1.83
2023-04-11T05:33:41.865Z,1.77
2023-04-11T05:36:13.497Z,2.10
2023-04-11T05:38:41.396Z,2.10
2023-04-11T05:41:09.010Z,2.00
2023-04-11T05:43:36.425Z,1.30
2023-04-11T05:46:04.399Z,2.03
2023-04-11T05:48:31.769Z,2.17
2023-04-11T05:50:59.226Z,1.80
2023-04-11T05:53:26.582Z,1.70
2023-04-11T05:55:53.894Z,1.93
2023-04-11T05:58:21.346Z,2.07
2023-04-11T06:00:49.475Z,2.60
2023-04-11T06:03:17.229Z,1.83
2023-04-11T06:05:44.752Z,2.13
2023-04-11T06:08:12.164Z,2.13
2023-04-11T06:10:39.514Z,2.50
2023-04-11T06:13:06.880Z,2.70
2023-04-11T06:15:34.397Z,2.50
2023-04-11T06:18:01.852Z,1.63
2023-04-11T06:20:29.382Z,3.27
2023-04-11T06:22:56.960Z,2.00
2023-04-11T06:25:24.698Z,1.87
2023-04-11T06:27:52.074Z,2.73
2023-04-11T06:30:19.464Z,2.17
2023-04-11T06:32:46.856Z,2.50
2023-04-11T06:35:14.223Z,2.63
2023-04-11T06:37:42.313Z,2.33
2023-04-11T06:40:10.289Z,2.70
2023-04-11T06:42:37.664Z,2.47
2023-04-11T06:45:06.129Z,2.43
2023-04-11T06:47:33.884Z,2.90
2023-04-11T06:50:01.307Z,2.10
2023-04-11T06:52:28.673Z,2.30
2023-04-11T06:54:56.044Z,2.30
2023-04-11T06:57:23.480Z,2.73
2023-04-11T06:59:50.933Z,2.63
2023-04-11T07:02:18.440Z,1.90
2023-04-11T07:04:46.036Z,2.90
2023-04-11T07:07:13.520Z,2.30
2023-04-11T07:09:40.898Z,2.00
2023-04-11T07:12:08.260Z,2.30
2023-04-11T07:14:35.635Z,2.27
2023-04-11T07:17:02.929Z,2.20
2023-04-11T07:19:30.234Z,2.40
2023-04-11T07:21:58.187Z,2.60
2023-04-11T07:24:25.877Z,2.10
2023-04-11T07:26:54.120Z,2.30
2023-04-11T07:29:21.552Z,2.20
2023-04-11T07:31:49.466Z,1.97
2023-04-11T07:34:16.817Z,2.50
2023-04-11T07:36:44.107Z,2.30
2023-04-11T07:39:13.435Z,2.07
2023-04-11T07:41:41.086Z,1.87
2023-04-11T07:44:09.328Z,1.87
2023-04-11T07:46:36.678Z,2.23
2023-04-11T07:49:04.007Z,2.17
2023-04-11T07:51:31.362Z,2.10
2023-04-11T07:53:58.854Z,1.60
2023-04-11T07:56:26.474Z,2.47
2023-04-11T07:58:53.917Z,2.33
2023-04-11T08:01:22.047Z,2.63
2023-04-11T08:03:49.509Z,2.40
2023-04-11T08:06:17.172Z,2.10
2023-04-11T08:08:45.731Z,2.47
2023-04-11T08:11:13.109Z,1.60
2023-04-11T08:13:40.556Z,1.80
2023-04-11T08:16:09.695Z,2.10
2023-04-11T08:18:37.270Z,1.90
2023-04-11T08:21:04.695Z,2.40
2023-04-11T08:23:31.997Z,2.00
2023-04-11T08:25:59.279Z,1.90
2023-04-11T08:28:26.587Z,2.40
2023-04-11T08:30:55.745Z,2.10
2023-04-11T08:33:25.209Z,1.97
2023-04-11T08:35:52.578Z,2.00
2023-04-11T08:38:20.862Z,2.00
2023-04-11T08:40:48.228Z,1.90
2023-04-11T08:43:15.625Z,1.67
2023-04-11T08:45:43.110Z,1.57
2023-04-11T08:48:12.257Z,1.60
2023-04-11T08:50:41.506Z,2.20
2023-04-11T08:53:08.948Z,2.00
2023-04-11T08:55:36.762Z,1.67
2023-04-11T08:58:04.065Z,1.63
2023-04-11T09:00:32.199Z,2.00
2023-04-11T09:03:01.291Z,2.00
2023-04-11T09:05:30.277Z,2.40
2023-04-11T09:08:01.818Z,2.03
2023-04-11T09:10:29.333Z,2.07
2023-04-11T09:12:57.389Z,2.67
2023-04-11T09:15:27.186Z,1.63
2023-04-11T09:17:55.977Z,2.03
2023-04-11T09:20:29.530Z,1.73
2023-04-11T09:22:58.770Z,2.07
2023-04-11T09:25:26.189Z,2.00
2023-04-11T09:28:09.390Z,1.57
2023-04-11T09:30:37.045Z,2.00
2023-04-11T09:33:23.613Z,1.93
2023-04-11T09:35:52.475Z,2.30
2023-04-11T09:38:29.482Z,1.93
2023-04-11T09:40:57.261Z,1.70
2023-04-11T09:43:24.831Z,2.47
2023-04-11T09:45:54.808Z,1.90
2023-04-11T09:48:32.024Z,1.93
2023-04-11T09:50:51.370Z,2.13
2023-04-11T09:53:18.793Z,2.33
2023-04-11T09:55:46.638Z,2.27
2023-04-11T09:58:13.997Z,1.77
2023-04-11T10:00:41.903Z,1.83
2023-04-11T10:03:09.284Z,1.33
2023-04-11T10:05:37.925Z,2.27
2023-04-11T10:08:12.766Z,1.53
2023-04-11T10:10:41.692Z,2.00
2023-04-11T10:13:27.481Z,1.70
2023-04-11T10:16:11.014Z,1.50
2023-04-11T10:18:38.914Z,1.53
2023-04-11T10:21:08.312Z,1.80
2023-04-11T10:23:40.191Z,1.77
2023-04-11T10:26:09.068Z,1.40
2023-04-11T10:28:38.236Z,1.93
2023-04-11T10:31:08.185Z,1.53
2023-04-11T10:33:35.961Z,1.83
2023-04-11T10:36:11.011Z,1.83
2023-04-11T10:38:48.869Z,2.10
2023-04-11T10:41:21.313Z,1.40
2023-04-11T10:43:49.175Z,1.80
2023-04-11T10:46:20.216Z,1.77
2023-04-11T10:48:58.433Z,2.33
2023-04-11T10:51:26.646Z,1.53
2023-04-11T10:53:54.354Z,1.43
2023-04-11T10:56:39.989Z,1.63
2023-04-11T10:59:08.973Z,1.80
2023-04-11T11:04:07.252Z,1.60
2023-04-11T11:06:46.080Z,1.57
2023-04-11T11:09:06.333Z,1.53
2023-04-11T11:11:33.633Z,1.33
2023-04-11T11:14:01.169Z,1.20
2023-04-11T11:16:28.479Z,1.20
2023-04-11T11:18:58.686Z,2.27
2023-04-11T11:21:28.584Z,1.90
2023-04-11T11:24:00.295Z,1.70
2023-04-11T11:26:37.676Z,1.53
2023-04-11T11:29:05.716Z,1.70
2023-04-11T11:31:42.814Z,1.73
2023-04-11T11:36:41.175Z,1.30
2023-04-11T11:39:10.106Z,1.30
2023-04-11T11:41:39.042Z,1.93
2023-04-11T11:44:06.392Z,1.60
2023-04-11T11:46:35.272Z,1.27
2023-04-11T11:49:04.104Z,1.63
2023-04-11T11:51:41.423Z,1.20
2023-04-11T11:54:09.842Z,1.40
2023-04-11T11:56:37.788Z,1.23
2023-04-11T11:59:05.520Z,1.67
2023-04-11T12:01:36.298Z,1.37
2023-04-11T12:04:05.314Z,1.60
2023-04-11T12:06:33.030Z,1.47
2023-04-11T12:09:04.756Z,1.43
2023-04-11T12:11:33.677Z,1.47
2023-04-11T12:14:01.248Z,1.60
2023-04-11T12:16:28.613Z,1.30
2023-04-11T12:18:57.586Z,1.50
2023-04-11T12:21:25.076Z,1.13
2023-04-11T12:23:52.437Z,1.20
2023-04-11T12:26:23.835Z,1.30
2023-04-11T12:28:51.398Z,1.47
2023-04-11T12:31:20.389Z,1.53
2023-04-11T12:33:47.776Z,1.30
2023-04-11T12:36:15.336Z,1.30
2023-04-11T12:38:42.707Z,1.40
2023-04-11T12:43:39.050Z,1.20
2023-04-11T12:46:07.430Z,1.73
2023-04-11T12:48:34.759Z,1.30
2023-04-11T12:51:02.047Z,1.10
2023-04-11T12:53:29.350Z,1.20
2023-04-11T12:55:56.763Z,1.20
2023-04-11T12:58:24.112Z,1.10
2023-04-11T13:00:51.466Z,1.60
2023-04-11T13:03:19.002Z,1.23
2023-04-11T13:05:46.610Z,1.20
2023-04-11T13:08:13.911Z,1.23
2023-04-11T13:10:41.271Z,1.30
2023-04-11T13:13:18.110Z,1.70
2023-04-11T13:15:37.609Z,1.10
2023-04-11T13:18:05.032Z,1.43
2023-04-11T13:20:32.388Z,1.70
2023-04-11T13:22:59.693Z,1.50
2023-04-11T13:25:26.979Z,1.40
2023-04-11T13:27:54.357Z,1.10
2023-04-11T13:30:21.792Z,1.50
2023-04-11T13:32:49.137Z,1.20
2023-04-11T13:35:16.466Z,1.40
2023-04-11T13:37:43.829Z,1.20
2023-04-11T13:40:11.998Z,1.30
2023-04-11T13:42:39.325Z,1.47
2023-04-11T13:45:06.887Z,1.23
2023-04-11T13:47:36.796Z,1.37
2023-04-11T13:50:03.409Z,1.07
2023-04-11T13:52:30.926Z,1.47
2023-04-11T13:54:58.300Z,1.10
2023-04-11T13:57:25.662Z,1.30
2023-04-11T13:59:53.041Z,1.10
2023-04-11T14:02:20.457Z,1.20
2023-04-11T14:04:47.855Z,1.07
2023-04-11T14:07:15.260Z,1.57
2023-04-11T14:09:42.645Z,1.57
2023-04-11T14:12:10.288Z,1.30
2023-04-11T14:14:37.728Z,1.33
2023-04-11T14:17:05.186Z,1.70
2023-04-11T14:19:32.630Z,1.10
2023-04-11T14:21:59.998Z,1.50
2023-04-11T14:24:27.353Z,1.50
2023-04-11T14:26:54.781Z,1.40
2023-04-11T14:29:23.054Z,1.20
2023-04-11T14:31:50.911Z,1.27
2023-04-11T14:34:18.398Z,1.53
2023-04-11T14:36:45.970Z,1.20
2023-04-11T14:39:13.291Z,1.30
2023-04-11T14:41:40.730Z,1.40
2023-04-11T14:44:08.026Z,1.03
2023-04-11T14:46:35.566Z,1.10
2023-04-11T14:49:03.449Z,1.30
2023-04-11T14:51:31.031Z,1.10
2023-04-11T14:53:59.691Z,1.40
2023-04-11T14:56:27.037Z,1.40
2023-04-11T14:58:54.772Z,1.50
2023-04-11T15:01:22.120Z,1.70
2023-04-11T15:03:49.788Z,1.67
2023-04-11T15:06:17.202Z,1.33
2023-04-11T15:08:44.558Z,1.40
2023-04-11T15:11:11.963Z,1.60
2023-04-11T15:13:39.314Z,1.33
2023-04-11T15:16:08.114Z,1.40
2023-04-11T15:18:35.581Z,1.37
2023-04-11T15:21:03.150Z,1.53
2023-04-11T15:23:30.772Z,1.33
2023-04-11T15:25:59.411Z,1.13
2023-04-11T15:28:27.722Z,1.23
2023-04-11T15:30:55.351Z,2.10
2023-04-11T15:33:23.839Z,1.80
2023-04-11T15:35:53.301Z,1.20
2023-04-11T15:38:20.768Z,1.90
2023-04-11T15:40:51.471Z,1.80
2023-04-11T15:43:19.013Z,1.20
2023-04-11T15:45:46.495Z,1.13
2023-04-11T15:48:13.838Z,1.30
2023-04-11T15:50:41.910Z,1.30
2023-04-11T15:53:09.263Z,1.20
2023-04-11T15:55:40.760Z,1.30
2023-04-11T15:58:08.302Z,1.40
2023-04-11T16:00:36.215Z,1.13
2023-04-11T16:03:04.513Z,1.47
2023-04-11T16:05:36.676Z,1.10
2023-04-11T16:08:04.676Z,1.20
2023-04-11T16:10:32.611Z,1.23
2023-04-11T16:13:00.198Z,1.10
2023-04-11T16:15:27.538Z,1.27
2023-04-11T16:17:54.855Z,1.40
2023-04-11T16:20:22.680Z,1.00
2023-04-11T16:22:50.112Z,1.00
2023-04-11T16:25:19.105Z,1.20
2023-04-11T16:27:46.486Z,1.23
2023-04-11T16:30:13.916Z,1.60
2023-04-11T16:32:41.342Z,1.33
2023-04-11T16:35:08.828Z,1.10
2023-04-11T16:37:36.407Z,1.20
2023-04-11T16:40:05.484Z,1.30
2023-04-11T16:42:32.783Z,1.47
2023-04-11T16:45:00.165Z,1.00
2023-04-11T16:47:27.557Z,1.10
2023-04-11T16:49:54.872Z,1.00
2023-04-11T16:52:22.309Z,1.27
2023-04-11T16:54:51.406Z,1.23
2023-04-11T16:57:18.775Z,1.10
2023-04-11T16:59:46.328Z,1.30
2023-04-11T17:02:13.807Z,1.40
2023-04-11T17:04:41.168Z,1.20
2023-04-11T17:07:08.544Z,1.20
2023-04-11T17:09:35.916Z,1.33
2023-04-11T17:12:03.318Z,1.30
2023-04-11T17:14:30.796Z,1.33
2023-04-11T17:16:58.211Z,1.30
2023-04-11T17:19:25.738Z,1.70
2023-04-11T17:21:53.087Z,1.20
2023-04-11T17:24:20.432Z,1.23
2023-04-11T17:26:47.752Z,1.47
2023-04-11T17:29:15.498Z,1.33
2023-04-11T17:31:43.050Z,1.83
2023-04-11T17:34:10.416Z,1.30
2023-04-11T17:36:39.390Z,1.70
2023-04-11T17:39:06.672Z,1.40
2023-04-11T17:41:33.974Z,1.17
2023-04-11T17:44:01.329Z,1.80
2023-04-11T17:46:28.664Z,1.67
2023-04-11T17:48:56.093Z,1.53
2023-04-11T17:51:23.468Z,1.53
2023-04-11T17:53:50.840Z,1.33
2023-04-11T17:56:18.603Z,1.40
2023-04-11T17:58:47.844Z,1.57
2023-04-11T18:01:15.524Z,1.60
2023-04-11T18:03:43.890Z,1.57
2023-04-11T18:06:11.438Z,1.40
2023-04-11T18:08:50.333Z,1.37
2023-04-11T18:11:07.777Z,1.47
2023-04-11T18:13:35.153Z,1.50
2023-04-11T18:16:02.571Z,1.53
2023-04-11T18:18:29.887Z,1.80
2023-04-11T18:20:58.794Z,1.57
2023-04-11T18:23:26.153Z,1.37
2023-04-11T18:25:53.468Z,1.70
2023-04-11T18:28:20.820Z,2.27
2023-04-11T18:30:48.111Z,1.80
2023-04-11T18:33:17.467Z,1.60
2023-04-11T18:35:47.031Z,1.63
2023-04-11T18:38:14.560Z,1.73
2023-04-11T18:40:41.947Z,1.80
2023-04-11T18:43:09.474Z,1.60
2023-04-11T18:45:36.948Z,1.40
2023-04-11T18:48:04.459Z,1.47
2023-04-11T18:50:32.061Z,1.60
2023-04-11T18:53:04.660Z,1.53
2023-04-11T18:55:28.407Z,1.50
2023-04-11T18:57:59.100Z,1.30
2023-04-11T19:00:26.364Z,1.40
2023-04-11T19:02:53.985Z,1.70
2023-04-11T19:05:22.792Z,2.00
2023-04-11T19:07:50.362Z,2.20
2023-04-11T19:10:17.721Z,2.00
2023-04-11T19:12:45.096Z,1.50
2023-04-11T19:15:12.800Z,2.07
2023-04-11T19:17:40.254Z,1.67
2023-04-11T19:20:09.756Z,2.17
2023-04-11T19:22:38.775Z,2.30
2023-04-11T19:25:07.261Z,1.50
2023-04-11T19:27:34.655Z,1.80
2023-04-11T19:30:03.281Z,1.70
2023-04-11T19:32:30.599Z,1.83
2023-04-11T19:34:58.512Z,2.17
2023-04-11T19:37:25.994Z,1.90
2023-04-11T19:39:53.364Z,2.20
2023-04-11T19:42:20.825Z,2.33
2023-04-11T19:44:48.183Z,2.53
2023-04-11T19:47:15.473Z,1.90
2023-04-11T19:49:42.848Z,1.60
2023-04-11T19:52:10.826Z,2.10
2023-04-11T19:54:38.314Z,1.80
2023-04-11T19:57:05.620Z,2.50
2023-04-11T19:59:32.973Z,2.43
2023-04-11T20:02:01.330Z,2.27
2023-04-11T20:04:28.778Z,2.40
2023-04-11T20:06:57.743Z,1.93
2023-04-11T20:09:25.183Z,2.37
2023-04-11T20:11:52.563Z,2.90
2023-04-11T20:14:19.839Z,2.57
2023-04-11T20:16:47.200Z,2.53
2023-04-11T20:19:14.867Z,2.60
2023-04-11T20:21:42.269Z,2.20
2023-04-11T20:24:12.589Z,2.13
2023-04-11T20:26:39.994Z,2.30
2023-04-11T20:29:07.632Z,2.63
2023-04-11T20:31:34.924Z,2.00
2023-04-11T20:34:02.288Z,2.40
2023-04-11T20:36:29.729Z,2.10
2023-04-11T20:38:57.893Z,2.20
2023-04-11T20:41:26.445Z,2.23
2023-04-11T20:43:53.834Z,2.70
2023-04-11T20:46:21.407Z,2.20
2023-04-11T20:48:49.769Z,2.47
2023-04-11T20:51:17.908Z,2.10
2023-04-11T20:53:45.451Z,2.27
2023-04-11T20:56:14.504Z,2.60
2023-04-11T20:58:41.904Z,2.30
2023-04-11T21:01:09.295Z,2.20
2023-04-11T21:03:38.047Z,2.23
2023-04-11T21:06:07.226Z,2.40
2023-04-11T21:08:36.456Z,2.00
2023-04-11T21:11:04.316Z,2.17
2023-04-11T21:13:31.665Z,1.90
2023-04-11T21:15:59.057Z,1.90
2023-04-11T21:18:26.437Z,2.07
2023-04-11T21:20:53.749Z,2.00
2023-04-11T21:23:21.894Z,2.00
2023-04-11T21:25:49.184Z,2.13
2023-04-11T21:28:16.555Z,2.00
2023-04-11T21:30:43.846Z,1.87
2023-04-11T21:33:11.224Z,2.10
2023-04-11T21:35:38.543Z,2.37
2023-04-11T21:38:05.892Z,2.03
2023-04-11T21:40:33.188Z,2.30
2023-04-11T21:43:00.612Z,2.40
2023-04-11T21:45:28.465Z,1.90
2023-04-11T21:47:55.881Z,2.30
2023-04-11T21:50:23.278Z,2.67
2023-04-11T21:52:50.654Z,2.40
2023-04-11T21:55:17.947Z,2.73
2023-04-11T21:57:45.407Z,2.17
2023-04-11T22:00:13.275Z,2.10
2023-04-11T22:02:40.962Z,2.03
2023-04-11T22:05:12.532Z,2.00
2023-04-11T22:07:46.393Z,2.30
2023-04-11T22:10:13.905Z,3.20
2023-04-11T22:12:41.940Z,3.03
2023-04-11T22:15:11.185Z,2.33
2023-04-11T22:17:38.566Z,1.97
2023-04-11T22:20:08.520Z,2.00
2023-04-11T22:22:36.095Z,2.50
2023-04-11T22:25:03.582Z,1.97
2023-04-11T22:27:32.578Z,2.00
2023-04-11T22:30:01.602Z,2.03
2023-04-11T22:32:29.978Z,1.97
2023-04-11T22:34:57.300Z,2.20
2023-04-11T22:37:24.658Z,2.07
2023-04-11T22:39:51.964Z,2.30
2023-04-11T22:42:19.890Z,2.60
2023-04-11T22:44:47.262Z,1.80
2023-04-11T22:47:16.174Z,2.10
2023-04-11T22:49:44.443Z,1.77
2023-04-11T22:52:15.450Z,1.83
2023-04-11T22:54:43.168Z,1.80
2023-04-11T22:57:10.791Z,2.40
2023-04-11T22:59:38.160Z,1.50
2023-04-11T23:02:05.658Z,2.50
2023-04-11T23:04:33.127Z,1.97
2023-04-11T23:07:00.467Z,1.83
2023-04-11T23:09:28.195Z,2.00
2023-04-11T23:11:55.769Z,2.33
2023-04-11T23:14:24.028Z,2.20
2023-04-11T23:16:51.440Z,2.23
2023-04-11T23:19:18.998Z,1.93
2023-04-11T23:21:46.560Z,1.83
2023-04-11T23:24:14.389Z,2.77
2023-04-11T23:26:42.930Z,1.83
2023-04-11T23:29:10.293Z,1.80
2023-04-11T23:31:37.589Z,1.90
2023-04-11T23:34:04.885Z,2.00
2023-04-11T23:36:32.528Z,1.87
2023-04-11T23:39:01.660Z,1.90
2023-04-11T23:41:30.096Z,1.90
2023-04-11T23:43:58.116Z,2.10
2023-04-11T23:46:26.101Z,2.13
2023-04-11T23:48:53.916Z,2.10
2023-04-11T23:51:21.270Z,2.10
2023-04-11T23:53:49.209Z,2.00
2023-04-11T23:56:16.577Z,2.50
2023-04-11T23:58:43.872Z,1.77
